sensor_id;sensor_type;location;lat;lon;timestamp;pressure;altitude;pressure_sealevel;temperature;humidity
56604;BME280;42486;47.478;19.036;2023-03-03T00:01:45;100462.69;;;2.20;100.00
56604;BME280;42486;47.478;19.036;2023-03-03T00:04:49;100464.41;;;2.22;100.00
56604;BME280;42486;47.478;19.036;2023-03-03T00:07:55;100461.19;;;2.15;100.00
56604;BME280;42486;47.478;19.036;2023-03-03T00:11:01;100460.13;;;2.20;100.00
56604;BME280;42486;47.478;19.036;2023-03-03T00:14:16;100460.37;;;2.14;100.00
56604;BME280;42486;47.478;19.036;2023-03-03T00:17:27;100452.72;;;2.13;100.00
56604;BME280;42486;47.478;19.036;2023-03-03T00:20:36;100448.44;;;2.12;100.00
56604;BME280;42486;47.478;19.036;2023-03-03T00:23:40;100451.28;;;2.04;100.00
56604;BME280;42486;47.478;19.036;2023-03-03T00:26:53;100450.63;;;1.99;100.00
56604;BME280;42486;47.478;19.036;2023-03-03T00:29:59;100451.16;;;2.07;100.00
56604;BME280;42486;47.478;19.036;2023-03-03T00:33:21;100438.62;;;1.98;100.00
56604;BME280;42486;47.478;19.036;2023-03-03T00:36:38;100449.91;;;1.95;100.00
56604;BME280;42486;47.478;19.036;2023-03-03T00:39:46;100440.87;;;1.84;100.00
56604;BME280;42486;47.478;19.036;2023-03-03T00:42:54;100443.56;;;1.81;100.00
56604;BME280;42486;47.478;19.036;2023-03-03T00:46:02;100446.91;;;1.83;100.00
56604;BME280;42486;47.478;19.036;2023-03-03T00:49:13;100439.72;;;1.92;100.00
56604;BME280;42486;47.478;19.036;2023-03-03T00:52:26;100436.44;;;1.87;100.00
56604;BME280;42486;47.478;19.036;2023-03-03T00:55:33;100434.78;;;1.86;100.00
56604;BME280;42486;47.478;19.036;2023-03-03T00:58:37;100445.25;;;1.82;100.00
56604;BME280;42486;47.478;19.036;2023-03-03T01:01:42;100435.81;;;1.81;100.00
56604;BME280;42486;47.478;19.036;2023-03-03T01:04:49;100433.31;;;1.79;100.00
56604;BME280;42486;47.478;19.036;2023-03-03T01:08:00;100429.69;;;1.85;100.00
56604;BME280;42486;47.478;19.036;2023-03-03T01:11:08;100429.69;;;1.85;100.00
56604;BME280;42486;47.478;19.036;2023-03-03T01:14:15;100421.69;;;1.92;100.00
56604;BME280;42486;47.478;19.036;2023-03-03T01:17:26;100414.81;;;1.91;100.00
56604;BME280;42486;47.478;19.036;2023-03-03T01:20:35;100421.78;;;1.89;100.00
56604;BME280;42486;47.478;19.036;2023-03-03T01:23:40;100415.00;;;1.87;100.00
56604;BME280;42486;47.478;19.036;2023-03-03T01:26:44;100415.72;;;1.90;100.00
56604;BME280;42486;47.478;19.036;2023-03-03T01:29:50;100415.84;;;1.87;100.00
56604;BME280;42486;47.478;19.036;2023-03-03T01:32:54;100417.59;;;1.87;100.00
56604;BME280;42486;47.478;19.036;2023-03-03T01:35:58;100409.78;;;1.88;100.00
56604;BME280;42486;47.478;19.036;2023-03-03T01:39:03;100400.38;;;1.87;100.00
56604;BME280;42486;47.478;19.036;2023-03-03T01:42:09;100396.97;;;1.87;100.00
56604;BME280;42486;47.478;19.036;2023-03-03T01:45:17;100396.91;;;1.88;100.00
56604;BME280;42486;47.478;19.036;2023-03-03T01:48:40;100393.25;;;1.94;100.00
56604;BME280;42486;47.478;19.036;2023-03-03T01:51:47;100396.16;;;1.86;100.00
56604;BME280;42486;47.478;19.036;2023-03-03T01:55:00;100392.91;;;1.81;100.00
56604;BME280;42486;47.478;19.036;2023-03-03T01:58:13;100397.69;;;1.90;100.00
56604;BME280;42486;47.478;19.036;2023-03-03T02:01:21;100392.53;;;1.90;100.00
56604;BME280;42486;47.478;19.036;2023-03-03T02:04:29;100404.13;;;2.02;100.00
56604;BME280;42486;47.478;19.036;2023-03-03T02:07:34;100397.97;;;2.06;100.00
56604;BME280;42486;47.478;19.036;2023-03-03T02:10:43;100395.44;;;2.05;100.00
56604;BME280;42486;47.478;19.036;2023-03-03T02:13:47;100394.72;;;2.01;100.00
56604;BME280;42486;47.478;19.036;2023-03-03T02:16:51;100387.16;;;1.96;100.00
56604;BME280;42486;47.478;19.036;2023-03-03T02:20:00;100391.59;;;1.93;100.00
56604;BME280;42486;47.478;19.036;2023-03-03T02:26:24;100393.94;;;1.99;100.00
56604;BME280;42486;47.478;19.036;2023-03-03T02:29:35;100388.72;;;2.01;100.00
56604;BME280;42486;47.478;19.036;2023-03-03T02:32:39;100380.94;;;2.02;100.00
56604;BME280;42486;47.478;19.036;2023-03-03T02:35:45;100385.31;;;2.00;100.00
56604;BME280;42486;47.478;19.036;2023-03-03T02:42:11;100390.13;;;2.09;100.00
56604;BME280;42486;47.478;19.036;2023-03-03T02:45:19;100388.31;;;2.11;100.00
56604;BME280;42486;47.478;19.036;2023-03-03T02:48:22;100382.81;;;2.20;100.00
56604;BME280;42486;47.478;19.036;2023-03-03T02:51:29;100384.34;;;2.26;100.00
56604;BME280;42486;47.478;19.036;2023-03-03T02:54:35;100376.53;;;2.28;100.00
56604;BME280;42486;47.478;19.036;2023-03-03T02:57:42;100379.50;;;2.39;100.00
56604;BME280;42486;47.478;19.036;2023-03-03T03:00:45;100375.81;;;2.46;100.00
56604;BME280;42486;47.478;19.036;2023-03-03T03:03:50;100362.97;;;2.45;100.00
56604;BME280;42486;47.478;19.036;2023-03-03T03:06:55;100362.87;;;2.48;100.00
56604;BME280;42486;47.478;19.036;2023-03-03T03:10:05;100362.75;;;2.51;100.00
56604;BME280;42486;47.478;19.036;2023-03-03T03:13:17;100360.81;;;2.56;100.00
56604;BME280;42486;47.478;19.036;2023-03-03T03:16:27;100361.34;;;2.64;100.00
56604;BME280;42486;47.478;19.036;2023-03-03T03:19:32;100360.91;;;2.75;100.00
56604;BME280;42486;47.478;19.036;2023-03-03T03:22:36;100358.19;;;2.78;100.00
56604;BME280;42486;47.478;19.036;2023-03-03T03:25:42;100353.69;;;2.83;100.00
56604;BME280;42486;47.478;19.036;2023-03-03T03:28:49;100347.47;;;2.87;100.00
56604;BME280;42486;47.478;19.036;2023-03-03T03:31:53;100344.66;;;2.93;100.00
56604;BME280;42486;47.478;19.036;2023-03-03T03:34:57;100350.47;;;2.98;100.00
56604;BME280;42486;47.478;19.036;2023-03-03T03:38:00;100342.47;;;3.04;100.00
56604;BME280;42486;47.478;19.036;2023-03-03T03:41:06;100340.56;;;3.08;100.00
56604;BME280;42486;47.478;19.036;2023-03-03T03:44:12;100337.84;;;3.11;100.00
56604;BME280;42486;47.478;19.036;2023-03-03T03:47:16;100335.16;;;3.14;100.00
56604;BME280;42486;47.478;19.036;2023-03-03T03:50:21;100338.81;;;3.29;100.00
56604;BME280;42486;47.478;19.036;2023-03-03T03:53:27;100336.22;;;3.29;100.00
56604;BME280;42486;47.478;19.036;2023-03-03T03:56:39;100324.94;;;3.31;100.00
56604;BME280;42486;47.478;19.036;2023-03-03T03:59:43;100328.16;;;3.37;100.00
56604;BME280;42486;47.478;19.036;2023-03-03T04:02:48;100324.31;;;3.45;100.00
56604;BME280;42486;47.478;19.036;2023-03-03T04:05:54;100329.22;;;3.51;100.00
56604;BME280;42486;47.478;19.036;2023-03-03T04:09:00;100324.69;;;3.57;100.00
56604;BME280;42486;47.478;19.036;2023-03-03T04:12:07;100325.56;;;3.56;100.00
56604;BME280;42486;47.478;19.036;2023-03-03T04:15:12;100324.69;;;3.57;100.00
56604;BME280;42486;47.478;19.036;2023-03-03T04:18:24;100324.47;;;3.61;100.00
56604;BME280;42486;47.478;19.036;2023-03-03T04:21:28;100316.72;;;3.61;100.00
56604;BME280;42486;47.478;19.036;2023-03-03T04:24:33;100327.91;;;3.62;100.00
56604;BME280;42486;47.478;19.036;2023-03-03T04:27:44;100323.34;;;3.67;100.00
56604;BME280;42486;47.478;19.036;2023-03-03T04:30:48;100321.34;;;3.73;100.00
56604;BME280;42486;47.478;19.036;2023-03-03T04:33:53;100322.25;;;3.72;100.00
56604;BME280;42486;47.478;19.036;2023-03-03T04:36:58;100322.25;;;3.72;100.00
56604;BME280;42486;47.478;19.036;2023-03-03T04:40:05;100314.34;;;3.75;100.00
56604;BME280;42486;47.478;19.036;2023-03-03T04:43:13;100319.28;;;3.80;100.00
56604;BME280;42486;47.478;19.036;2023-03-03T04:46:24;100313.91;;;3.85;100.00
56604;BME280;42486;47.478;19.036;2023-03-03T04:49:30;100317.97;;;3.90;100.00
56604;BME280;42486;47.478;19.036;2023-03-03T04:52:34;100317.91;;;3.92;100.00
56604;BME280;42486;47.478;19.036;2023-03-03T04:55:41;100316.28;;;3.89;100.00
56604;BME280;42486;47.478;19.036;2023-03-03T04:58:49;100316.00;;;3.95;100.00
56604;BME280;42486;47.478;19.036;2023-03-03T05:01:58;100316.78;;;3.97;100.00
56604;BME280;42486;47.478;19.036;2023-03-03T05:05:05;100323.59;;;3.98;100.00
56604;BME280;42486;47.478;19.036;2023-03-03T05:08:18;100325.84;;;4.06;100.00
56604;BME280;42486;47.478;19.036;2023-03-03T05:11:24;100326.25;;;4.16;100.00
56604;BME280;42486;47.478;19.036;2023-03-03T05:14:32;100323.56;;;4.17;100.00
56604;BME280;42486;47.478;19.036;2023-03-03T05:17:37;100326.31;;;4.14;100.00
56604;BME280;42486;47.478;19.036;2023-03-03T05:20:41;100322.06;;;4.13;100.00
56604;BME280;42486;47.478;19.036;2023-03-03T05:23:47;100321.50;;;4.07;100.00
56604;BME280;42486;47.478;19.036;2023-03-03T05:26:57;100326.34;;;3.95;100.00
56604;BME280;42486;47.478;19.036;2023-03-03T05:30:04;100324.38;;;4.01;100.00
56604;BME280;42486;47.478;19.036;2023-03-03T05:33:14;100331.00;;;4.06;100.00
56604;BME280;42486;47.478;19.036;2023-03-03T05:36:18;100327.75;;;4.03;100.00
56604;BME280;42486;47.478;19.036;2023-03-03T05:39:23;100332.22;;;3.99;100.00
56604;BME280;42486;47.478;19.036;2023-03-03T05:42:31;100335.84;;;3.95;100.00
56604;BME280;42486;47.478;19.036;2023-03-03T05:45:36;100343.31;;;4.01;100.00
56604;BME280;42486;47.478;19.036;2023-03-03T05:48:42;100341.75;;;4.16;100.00
56604;BME280;42486;47.478;19.036;2023-03-03T05:51:47;100343.56;;;4.14;100.00
56604;BME280;42486;47.478;19.036;2023-03-03T05:54:55;100341.97;;;4.11;100.00
56604;BME280;42486;47.478;19.036;2023-03-03T05:58:00;100342.91;;;4.10;100.00
56604;BME280;42486;47.478;19.036;2023-03-03T06:01:13;100345.63;;;4.07;100.00
56604;BME280;42486;47.478;19.036;2023-03-03T06:04:20;100344.69;;;4.08;100.00
56604;BME280;42486;47.478;19.036;2023-03-03T06:07:24;100353.72;;;4.18;100.00
56604;BME280;42486;47.478;19.036;2023-03-03T06:10:27;100342.75;;;4.31;100.00
56604;BME280;42486;47.478;19.036;2023-03-03T06:13:30;100342.13;;;4.45;100.00
56604;BME280;42486;47.478;19.036;2023-03-03T06:16:35;100349.59;;;4.51;100.00
56604;BME280;42486;47.478;19.036;2023-03-03T06:19:39;100344.94;;;4.57;100.00
56604;BME280;42486;47.478;19.036;2023-03-03T06:22:43;100346.47;;;4.61;100.00
56604;BME280;42486;47.478;19.036;2023-03-03T06:25:50;100354.38;;;4.76;100.00
56604;BME280;42486;47.478;19.036;2023-03-03T06:29:00;100354.72;;;4.87;100.00
56604;BME280;42486;47.478;19.036;2023-03-03T06:32:04;100356.91;;;4.95;100.00
56604;BME280;42486;47.478;19.036;2023-03-03T06:35:09;100360.25;;;4.97;100.00
56604;BME280;42486;47.478;19.036;2023-03-03T06:38:18;100360.41;;;5.11;100.00
56604;BME280;42486;47.478;19.036;2023-03-03T06:41:26;100364.94;;;5.23;100.00
56604;BME280;42486;47.478;19.036;2023-03-03T06:44:32;100364.03;;;5.24;100.00
56604;BME280;42486;47.478;19.036;2023-03-03T06:47:39;100361.78;;;5.34;100.00
56604;BME280;42486;47.478;19.036;2023-03-03T06:50:44;100370.88;;;5.43;100.00
56604;BME280;42486;47.478;19.036;2023-03-03T06:53:56;100371.19;;;5.52;100.00
56604;BME280;42486;47.478;19.036;2023-03-03T06:57:03;100378.41;;;5.63;100.00
56604;BME280;42486;47.478;19.036;2023-03-03T07:00:21;100385.47;;;5.77;100.00
56604;BME280;42486;47.478;19.036;2023-03-03T07:03:35;100384.03;;;5.87;100.00
56604;BME280;42486;47.478;19.036;2023-03-03T07:06:42;100390.16;;;5.86;100.00
56604;BME280;42486;47.478;19.036;2023-03-03T07:09:54;100392.38;;;5.94;100.00
56604;BME280;42486;47.478;19.036;2023-03-03T07:13:20;100388.44;;;6.03;98.59
56604;BME280;42486;47.478;19.036;2023-03-03T07:16:27;100396.47;;;5.98;98.22
56604;BME280;42486;47.478;19.036;2023-03-03T07:19:33;100398.88;;;5.85;97.87
56604;BME280;42486;47.478;19.036;2023-03-03T07:22:38;100397.75;;;5.73;99.53
56604;BME280;42486;47.478;19.036;2023-03-03T07:25:47;100402.44;;;5.67;98.94
56604;BME280;42486;47.478;19.036;2023-03-03T07:29:18;100409.31;;;5.84;100.00
56604;BME280;42486;47.478;19.036;2023-03-03T07:32:26;100410.63;;;6.08;99.62
56604;BME280;42486;47.478;19.036;2023-03-03T07:35:44;100416.91;;;6.20;98.67
56604;BME280;42486;47.478;19.036;2023-03-03T07:38:57;100419.00;;;6.29;98.98
56604;BME280;42486;47.478;19.036;2023-03-03T07:42:42;100415.31;;;6.33;98.15
56604;BME280;42486;47.478;19.036;2023-03-03T07:45:43;100419.34;;;6.39;97.58
56604;BME280;42486;47.478;19.036;2023-03-03T07:48:49;100409.19;;;6.34;97.22
56604;BME280;42486;47.478;19.036;2023-03-03T07:51:55;100413.13;;;6.57;97.69
56604;BME280;42486;47.478;19.036;2023-03-03T07:55:00;100407.50;;;6.65;95.57
56604;BME280;42486;47.478;19.036;2023-03-03T08:04:38;100420.28;;;7.28;94.19
56604;BME280;42486;47.478;19.036;2023-03-03T08:07:49;100417.16;;;7.38;91.23
56604;BME280;42486;47.478;19.036;2023-03-03T08:11:01;100418.28;;;7.48;93.09
56604;BME280;42486;47.478;19.036;2023-03-03T08:14:09;100411.88;;;7.54;92.19
56604;BME280;42486;47.478;19.036;2023-03-03T08:17:16;100416.41;;;7.79;92.01
56604;BME280;42486;47.478;19.036;2023-03-03T08:23:31;100410.75;;;8.01;89.94
56604;BME280;42486;47.478;19.036;2023-03-03T08:26:36;100406.47;;;8.00;90.91
56604;BME280;42486;47.478;19.036;2023-03-03T08:29:39;100412.12;;;8.06;88.60
56604;BME280;42486;47.478;19.036;2023-03-03T08:32:44;100413.87;;;8.20;90.21
56604;BME280;42486;47.478;19.036;2023-03-03T08:35:47;100411.44;;;8.31;88.73
56604;BME280;42486;47.478;19.036;2023-03-03T08:38:51;100414.56;;;8.36;88.48
56604;BME280;42486;47.478;19.036;2023-03-03T08:41:54;100420.53;;;8.38;88.46
56604;BME280;42486;47.478;19.036;2023-03-03T08:44:57;100418.66;;;8.55;89.11
56604;BME280;42486;47.478;19.036;2023-03-03T08:48:01;100410.41;;;8.88;88.50
56604;BME280;42486;47.478;19.036;2023-03-03T08:51:07;100418.91;;;9.17;86.80
56604;BME280;42486;47.478;19.036;2023-03-03T08:54:13;100414.34;;;9.34;83.40
56604;BME280;42486;47.478;19.036;2023-03-03T08:57:19;100411.19;;;9.67;82.12
56604;BME280;42486;47.478;19.036;2023-03-03T09:00:23;100418.38;;;9.89;80.86
56604;BME280;42486;47.478;19.036;2023-03-03T09:03:30;100413.06;;;9.78;80.61
56604;BME280;42486;47.478;19.036;2023-03-03T09:06:32;100419.47;;;9.74;81.52
56604;BME280;42486;47.478;19.036;2023-03-03T09:09:37;100419.25;;;9.77;80.95
56604;BME280;42486;47.478;19.036;2023-03-03T09:12:42;100416.19;;;9.83;79.74
56604;BME280;42486;47.478;19.036;2023-03-03T09:15:47;100410.03;;;9.84;79.66
56604;BME280;42486;47.478;19.036;2023-03-03T09:18:54;100414.69;;;10.04;79.93
56604;BME280;42486;47.478;19.036;2023-03-03T09:22:19;100410.53;;;10.02;79.95
56604;BME280;42486;47.478;19.036;2023-03-03T09:25:30;100411.62;;;10.10;77.15
56604;BME280;42486;47.478;19.036;2023-03-03T09:28:36;100408.25;;;10.34;77.73
56604;BME280;42486;47.478;19.036;2023-03-03T09:31:44;100407.72;;;10.66;75.75
56604;BME280;42486;47.478;19.036;2023-03-03T09:34:49;100407.28;;;10.72;74.97
56604;BME280;42486;47.478;19.036;2023-03-03T09:37:54;100411.16;;;10.66;73.65
56604;BME280;42486;47.478;19.036;2023-03-03T09:50:34;100411.84;;;10.57;72.81
56604;BME280;42486;47.478;19.036;2023-03-03T09:53:45;100419.34;;;10.38;74.81
56604;BME280;42486;47.478;19.036;2023-03-03T09:57:10;100411.81;;;10.33;74.12
56604;BME280;42486;47.478;19.036;2023-03-03T10:00:26;100404.41;;;10.27;74.58
56604;BME280;42486;47.478;19.036;2023-03-03T10:13:25;100397.97;;;11.03;70.96
56604;BME280;42486;47.478;19.036;2023-03-03T10:26:26;100389.69;;;10.74;70.49
56604;BME280;42486;47.478;19.036;2023-03-03T10:30:00;100384.72;;;10.82;70.41
56604;BME280;42486;47.478;19.036;2023-03-03T10:36:38;100378.91;;;11.25;69.45
56604;BME280;42486;47.478;19.036;2023-03-03T10:50:15;100367.47;;;10.68;71.37
56604;BME280;42486;47.478;19.036;2023-03-03T10:53:31;100365.34;;;10.73;70.96
56604;BME280;42486;47.478;19.036;2023-03-03T10:56:57;100360.06;;;10.86;70.66
56604;BME280;42486;47.478;19.036;2023-03-03T11:00:23;100353.00;;;11.33;70.70
56604;BME280;42486;47.478;19.036;2023-03-03T11:10:00;100352.75;;;12.04;66.54
56604;BME280;42486;47.478;19.036;2023-03-03T11:13:26;100349.88;;;12.18;63.96
56604;BME280;42486;47.478;19.036;2023-03-03T11:20:00;100340.53;;;12.57;62.62
56604;BME280;42486;47.478;19.036;2023-03-03T11:32:44;100328.22;;;12.69;64.07
56604;BME280;42486;47.478;19.036;2023-03-03T11:36:06;100320.59;;;13.08;61.43
56604;BME280;42486;47.478;19.036;2023-03-03T11:39:17;100311.19;;;13.27;59.69
56604;BME280;42486;47.478;19.036;2023-03-03T11:42:44;100306.41;;;13.41;60.34
56604;BME280;42486;47.478;19.036;2023-03-03T11:45:54;100306.69;;;13.17;58.81
56604;BME280;42486;47.478;19.036;2023-03-03T11:52:35;100289.16;;;12.66;62.12
56604;BME280;42486;47.478;19.036;2023-03-03T11:55:41;100297.13;;;12.86;61.95
56604;BME280;42486;47.478;19.036;2023-03-03T11:58:56;100287.31;;;13.30;61.51
56604;BME280;42486;47.478;19.036;2023-03-03T12:02:03;100290.06;;;13.69;58.60
56604;BME280;42486;47.478;19.036;2023-03-03T12:27:59;100261.75;;;14.69;53.36
56604;BME280;42486;47.478;19.036;2023-03-03T12:37:26;100250.72;;;14.37;53.94
56604;BME280;42486;47.478;19.036;2023-03-03T12:40:38;100252.66;;;14.25;55.45
56604;BME280;42486;47.478;19.036;2023-03-03T12:47:05;100252.66;;;14.25;54.61
56604;BME280;42486;47.478;19.036;2023-03-03T12:59:41;100263.66;;;12.47;56.55
56604;BME280;42486;47.478;19.036;2023-03-03T13:06:31;100256.91;;;12.33;57.45
56604;BME280;42486;47.478;19.036;2023-03-03T13:09:50;100259.41;;;12.35;57.22
56604;BME280;42486;47.478;19.036;2023-03-03T13:12:58;100256.78;;;12.14;57.09
56604;BME280;42486;47.478;19.036;2023-03-03T13:16:03;100253.03;;;11.96;57.27
56604;BME280;42486;47.478;19.036;2023-03-03T13:19:12;100253.00;;;12.28;58.18
56604;BME280;42486;47.478;19.036;2023-03-03T13:25:33;100248.59;;;12.28;55.15
56604;BME280;42486;47.478;19.036;2023-03-03T13:28:52;100243.78;;;12.45;54.14
56604;BME280;42486;47.478;19.036;2023-03-03T13:31:58;100244.97;;;12.62;52.95
56604;BME280;42486;47.478;19.036;2023-03-03T13:35:06;100241.34;;;12.53;51.93
56604;BME280;42486;47.478;19.036;2023-03-03T13:38:23;100241.13;;;12.66;52.57
56604;BME280;42486;47.478;19.036;2023-03-03T13:41:38;100236.22;;;12.51;52.13
56604;BME280;42486;47.478;19.036;2023-03-03T13:44:46;100231.53;;;12.55;52.01
56604;BME280;42486;47.478;19.036;2023-03-03T14:07:27;100218.38;;;12.03;52.29
56604;BME280;42486;47.478;19.036;2023-03-03T14:10:46;100216.47;;;12.05;51.18
56604;BME280;42486;47.478;19.036;2023-03-03T14:14:13;100213.25;;;12.02;51.10
56604;BME280;42486;47.478;19.036;2023-03-03T14:20:42;100207.97;;;12.13;51.60
56604;BME280;42486;47.478;19.036;2023-03-03T14:23:56;100205.72;;;12.08;50.96
56604;BME280;42486;47.478;19.036;2023-03-03T14:27:03;100194.34;;;11.98;51.50
56604;BME280;42486;47.478;19.036;2023-03-03T14:33:28;100194.19;;;12.11;51.94
56604;BME280;42486;47.478;19.036;2023-03-03T14:36:40;100195.97;;;12.10;52.66
56604;BME280;42486;47.478;19.036;2023-03-03T14:39:47;100192.00;;;12.16;53.26
56604;BME280;42486;47.478;19.036;2023-03-03T14:42:57;100182.22;;;11.97;53.32
56604;BME280;42486;47.478;19.036;2023-03-03T14:49:30;100176.22;;;12.06;53.26
56604;BME280;42486;47.478;19.036;2023-03-03T14:52:34;100182.47;;;12.15;53.56
56604;BME280;42486;47.478;19.036;2023-03-03T14:55:42;100190.88;;;11.65;53.18
56604;BME280;42486;47.478;19.036;2023-03-03T14:58:47;100181.50;;;11.63;54.45
56604;BME280;42486;47.478;19.036;2023-03-03T15:01:59;100187.66;;;11.62;53.46
56604;BME280;42486;47.478;19.036;2023-03-03T15:05:29;100183.75;;;11.67;54.84
56604;BME280;42486;47.478;19.036;2023-03-03T15:08:34;100184.84;;;11.54;54.37
56604;BME280;42486;47.478;19.036;2023-03-03T15:11:38;100190.72;;;11.35;55.09
56604;BME280;42486;47.478;19.036;2023-03-03T15:14:44;100185.63;;;11.11;55.46
56604;BME280;42486;47.478;19.036;2023-03-03T15:18:24;100193.00;;;10.94;55.70
56604;BME280;42486;47.478;19.036;2023-03-03T15:21:24;100187.44;;;10.99;56.15
56604;BME280;42486;47.478;19.036;2023-03-03T15:24:36;100196.69;;;10.92;56.44
56604;BME280;42486;47.478;19.036;2023-03-03T15:27:45;100200.25;;;10.79;56.56
56604;BME280;42486;47.478;19.036;2023-03-03T15:31:01;100198.59;;;10.78;57.45
56604;BME280;42486;47.478;19.036;2023-03-03T15:34:21;100207.84;;;10.71;57.45
56604;BME280;42486;47.478;19.036;2023-03-03T15:37:37;100201.22;;;10.67;57.84
56604;BME280;42486;47.478;19.036;2023-03-03T15:40:49;100205.81;;;10.64;58.87
56604;BME280;42486;47.478;19.036;2023-03-03T15:47:17;100205.69;;;10.43;58.48
56604;BME280;42486;47.478;19.036;2023-03-03T15:53:57;100210.94;;;10.19;58.97
56604;BME280;42486;47.478;19.036;2023-03-03T16:00:36;100213.22;;;9.99;58.47
56604;BME280;42486;47.478;19.036;2023-03-03T16:04:08;100214.50;;;9.93;59.16
56604;BME280;42486;47.478;19.036;2023-03-03T16:13:38;100223.19;;;9.57;59.86
56604;BME280;42486;47.478;19.036;2023-03-03T16:20:13;100233.19;;;9.39;59.35
56604;BME280;42486;47.478;19.036;2023-03-03T16:26:31;100242.00;;;9.13;61.90
56604;BME280;42486;47.478;19.036;2023-03-03T16:30:02;100232.00;;;8.94;62.51
56604;BME280;42486;47.478;19.036;2023-03-03T16:33:30;100240.03;;;8.78;63.16
56604;BME280;42486;47.478;19.036;2023-03-03T16:42:48;100250.78;;;8.33;64.53
56604;BME280;42486;47.478;19.036;2023-03-03T16:46:04;100247.13;;;8.23;66.87
56604;BME280;42486;47.478;19.036;2023-03-03T16:52:24;100248.59;;;7.87;66.32
56604;BME280;42486;47.478;19.036;2023-03-03T16:55:34;100259.75;;;7.75;66.65
56604;BME280;42486;47.478;19.036;2023-03-03T17:21:24;100273.09;;;7.27;71.38
56604;BME280;42486;47.478;19.036;2023-03-03T17:24:51;100279.03;;;7.15;72.51
56604;BME280;42486;47.478;19.036;2023-03-03T17:28:04;100273.28;;;6.96;72.60
56604;BME280;42486;47.478;19.036;2023-03-03T17:31:19;100273.28;;;6.81;72.93
56604;BME280;42486;47.478;19.036;2023-03-03T17:34:35;100276.59;;;6.69;73.53
56604;BME280;42486;47.478;19.036;2023-03-03T17:41:13;100274.19;;;6.66;74.01
56604;BME280;42486;47.478;19.036;2023-03-03T17:49:01;100272.69;;;6.32;76.44
56604;BME280;42486;47.478;19.036;2023-03-03T17:58:28;100273.09;;;5.94;80.08
56604;BME280;42486;47.478;19.036;2023-03-03T18:08:01;100286.62;;;5.51;82.45
56604;BME280;42486;47.478;19.036;2023-03-03T18:17:43;100289.94;;;5.22;83.04
56604;BME280;42486;47.478;19.036;2023-03-03T18:30:56;100290.12;;;5.01;83.89
56604;BME280;42486;47.478;19.036;2023-03-03T18:34:06;100284.44;;;4.95;85.33
56604;BME280;42486;47.478;19.036;2023-03-03T18:41:27;100281.97;;;4.92;86.38
56604;BME280;42486;47.478;19.036;2023-03-03T18:51:02;100268.53;;;4.68;88.17
56604;BME280;42486;47.478;19.036;2023-03-03T18:57:24;100274.94;;;4.60;86.96
56604;BME280;42486;47.478;19.036;2023-03-03T19:00:29;100281.63;;;4.64;87.96
56604;BME280;42486;47.478;19.036;2023-03-03T19:03:35;100282.94;;;4.56;88.62
56604;BME280;42486;47.478;19.036;2023-03-03T19:09:47;100279.06;;;4.47;86.83
56604;BME280;42486;47.478;19.036;2023-03-03T19:13:02;100280.94;;;4.44;88.17
56604;BME280;42486;47.478;19.036;2023-03-03T19:19:22;100286.38;;;4.39;87.72
56604;BME280;42486;47.478;19.036;2023-03-03T19:22:28;100284.31;;;4.28;87.49
56604;BME280;42486;47.478;19.036;2023-03-03T19:25:35;100287.87;;;4.26;88.97
56604;BME280;42486;47.478;19.036;2023-03-03T19:28:51;100285.13;;;4.29;89.66
56604;BME280;42486;47.478;19.036;2023-03-03T19:42:04;100289.91;;;4.19;89.14
56604;BME280;42486;47.478;19.036;2023-03-03T19:48:24;100293.78;;;4.10;88.72
56604;BME280;42486;47.478;19.036;2023-03-03T19:51:34;100290.47;;;4.07;89.34
56604;BME280;42486;47.478;19.036;2023-03-03T20:14:17;100306.47;;;3.79;91.93
56604;BME280;42486;47.478;19.036;2023-03-03T20:17:37;100302.56;;;3.70;92.21
56604;BME280;42486;47.478;19.036;2023-03-03T20:26:57;100311.97;;;3.52;93.87
56604;BME280;42486;47.478;19.036;2023-03-03T20:56:09;100312.75;;;3.35;93.42
56604;BME280;42486;47.478;19.036;2023-03-03T21:05:33;100312.31;;;3.25;94.33
56604;BME280;42486;47.478;19.036;2023-03-03T21:08:41;100315.06;;;3.21;94.02
56604;BME280;42486;47.478;19.036;2023-03-03T21:11:48;100315.53;;;3.10;94.15
56604;BME280;42486;47.478;19.036;2023-03-03T21:15:00;100314.00;;;3.06;93.98
56604;BME280;42486;47.478;19.036;2023-03-03T21:18:18;100313.44;;;2.99;93.59
56604;BME280;42486;47.478;19.036;2023-03-03T21:21:24;100314.25;;;3.00;93.15
56604;BME280;42486;47.478;19.036;2023-03-03T21:28:18;100309.41;;;2.92;91.18
56604;BME280;42486;47.478;19.036;2023-03-03T21:31:27;100307.87;;;2.88;91.50
56604;BME280;42486;47.478;19.036;2023-03-03T21:34:47;100309.88;;;2.81;92.28
56604;BME280;42486;47.478;19.036;2023-03-03T21:38:05;100305.16;;;2.71;92.80
56604;BME280;42486;47.478;19.036;2023-03-03T21:41:12;100304.66;;;2.62;92.54
56604;BME280;42486;47.478;19.036;2023-03-03T21:47:34;100316.75;;;2.60;93.84
56604;BME280;42486;47.478;19.036;2023-03-03T21:50:39;100319.28;;;2.62;93.45
56604;BME280;42486;47.478;19.036;2023-03-03T21:53:46;100315.94;;;2.60;93.98
56604;BME280;42486;47.478;19.036;2023-03-03T21:56:52;100303.34;;;2.52;94.02
56604;BME280;42486;47.478;19.036;2023-03-03T21:59:58;100316.88;;;2.37;95.55
56604;BME280;42486;47.478;19.036;2023-03-03T22:03:03;100310.34;;;2.28;95.98
56604;BME280;42486;47.478;19.036;2023-03-03T22:06:11;100308.19;;;2.17;96.89
56604;BME280;42486;47.478;19.036;2023-03-03T22:09:18;100315.34;;;2.11;97.44
56604;BME280;42486;47.478;19.036;2023-03-03T22:12:26;100311.69;;;2.16;98.95